createdAt,value
2022-09-06T00:01:13.954Z,24.00
2022-09-06T00:03:40.317Z,23.97
2022-09-06T00:06:07.075Z,23.95
2022-09-06T00:08:33.559Z,23.92
2022-09-06T00:11:01.366Z,23.91
2022-09-06T00:13:28.100Z,23.88
2022-09-06T00:15:54.500Z,23.86
2022-09-06T00:18:21.255Z,23.84
2022-09-06T00:20:48.126Z,23.83
2022-09-06T00:23:14.696Z,23.81
2022-09-06T00:25:41.222Z,23.80
2022-09-06T00:28:07.595Z,23.79
2022-09-06T00:30:36.962Z,23.78
2022-09-06T00:33:03.284Z,23.78
2022-09-06T00:35:29.584Z,23.76
2022-09-06T00:37:55.936Z,23.74
2022-09-06T00:40:22.317Z,23.72
2022-09-06T00:42:48.937Z,23.68
2022-09-06T00:45:18.473Z,23.66
2022-09-06T00:47:44.872Z,23.66
2022-09-06T00:50:11.171Z,23.65
2022-09-06T00:52:37.636Z,23.63
2022-09-06T00:55:03.966Z,23.61
2022-09-06T00:57:30.305Z,23.59
2022-09-06T00:59:56.818Z,23.58
2022-09-06T01:02:23.502Z,23.56
2022-09-06T01:04:52.114Z,23.54
2022-09-06T01:07:18.470Z,23.52
2022-09-06T01:09:45.013Z,23.50
2022-09-06T01:12:11.377Z,23.49
2022-09-06T01:14:37.750Z,23.48
2022-09-06T01:17:05.448Z,23.45
2022-09-06T01:19:31.907Z,23.42
2022-09-06T01:21:58.286Z,23.39
2022-09-06T01:24:24.603Z,23.37
2022-09-06T01:26:51.448Z,23.39
2022-09-06T01:29:17.876Z,23.37
2022-09-06T01:31:44.845Z,23.37
2022-09-06T01:34:14.341Z,23.35
2022-09-06T01:36:54.310Z,23.35
2022-09-06T01:39:27.080Z,23.32
2022-09-06T01:41:53.700Z,23.32
2022-09-06T01:44:20.628Z,23.31
2022-09-06T01:46:46.988Z,23.29
2022-09-06T01:49:13.530Z,23.26
2022-09-06T01:51:40.367Z,23.23
2022-09-06T01:54:06.819Z,23.22
2022-09-06T01:56:33.506Z,23.21
2022-09-06T01:59:09.162Z,23.20
2022-09-06T02:01:35.871Z,23.20
2022-09-06T02:04:02.319Z,23.18
2022-09-06T02:06:28.839Z,23.18
2022-09-06T02:08:55.123Z,23.16
2022-09-06T02:11:21.851Z,23.15
2022-09-06T02:13:48.207Z,23.13
2022-09-06T02:16:15.087Z,23.12
2022-09-06T02:18:41.461Z,23.11
2022-09-06T02:21:07.810Z,23.12
2022-09-06T02:23:34.145Z,23.11
2022-09-06T02:26:00.496Z,23.10
2022-09-06T02:28:27.057Z,23.08
2022-09-06T02:30:53.604Z,23.06
2022-09-06T02:33:19.960Z,23.06
2022-09-06T02:35:46.308Z,23.03
2022-09-06T02:38:12.716Z,23.02
2022-09-06T02:40:39.018Z,22.99
2022-09-06T02:43:05.374Z,22.97
2022-09-06T02:45:31.881Z,22.96
2022-09-06T02:47:58.230Z,22.95
2022-09-06T02:50:25.456Z,22.94
2022-09-06T02:52:54.947Z,22.93
2022-09-06T02:55:22.387Z,22.91
2022-09-06T02:57:48.779Z,22.89
2022-09-06T03:00:15.180Z,22.88
2022-09-06T03:02:44.556Z,22.85
2022-09-06T03:05:10.938Z,22.84
2022-09-06T03:07:37.358Z,22.83
2022-09-06T03:10:03.685Z,22.81
2022-09-06T03:12:30.024Z,22.78
2022-09-06T03:14:56.309Z,22.76
2022-09-06T03:17:23.242Z,22.75
2022-09-06T03:19:49.618Z,22.72
2022-09-06T03:22:15.885Z,22.70
2022-09-06T03:24:44.782Z,22.68
2022-09-06T03:27:11.064Z,22.66
2022-09-06T03:29:37.403Z,22.65
2022-09-06T03:32:04.424Z,22.64
2022-09-06T03:34:30.821Z,22.61
2022-09-06T03:36:57.422Z,22.60
2022-09-06T03:39:23.977Z,22.59
2022-09-06T03:41:50.380Z,22.58
2022-09-06T03:44:16.811Z,22.55
2022-09-06T03:46:43.296Z,22.54
2022-09-06T03:49:09.965Z,22.52
2022-09-06T03:51:36.236Z,22.50
2022-09-06T03:54:02.526Z,22.48
2022-09-06T03:56:29.146Z,22.44
2022-09-06T03:58:55.439Z,22.42
2022-09-06T04:01:21.984Z,22.39
2022-09-06T04:03:48.438Z,22.36
2022-09-06T04:06:15.038Z,22.33
2022-09-06T04:08:41.327Z,22.31
2022-09-06T04:11:07.704Z,22.30
2022-09-06T04:13:34.029Z,22.29
2022-09-06T04:16:00.693Z,22.26
2022-09-06T04:18:27.093Z,22.25
2022-09-06T04:20:53.597Z,22.24
2022-09-06T04:23:20.005Z,22.21
2022-09-06T04:25:46.352Z,22.20
2022-09-06T04:28:13.014Z,22.19
2022-09-06T04:30:39.604Z,22.17
2022-09-06T04:33:05.912Z,22.16
2022-09-06T04:35:32.859Z,22.16
2022-09-06T04:37:59.172Z,22.14
2022-09-06T04:40:30.404Z,22.12
2022-09-06T04:42:57.112Z,22.10
2022-09-06T04:45:23.398Z,22.09
2022-09-06T04:47:49.840Z,22.08
2022-09-06T04:50:16.372Z,22.06
2022-09-06T04:52:43.049Z,22.04
2022-09-06T04:55:09.446Z,22.02
2022-09-06T04:57:35.779Z,22.01
2022-09-06T05:00:02.527Z,21.99
2022-09-06T05:02:29.541Z,21.97
2022-09-06T05:04:55.981Z,21.97
2022-09-06T05:07:22.269Z,21.95
2022-09-06T05:09:49.043Z,21.94
2022-09-06T05:12:15.330Z,21.92
2022-09-06T05:14:41.724Z,21.92
2022-09-06T05:17:08.015Z,21.90
2022-09-06T05:19:34.537Z,21.90
2022-09-06T05:22:01.019Z,21.88
2022-09-06T05:24:27.609Z,21.89
2022-09-06T05:26:53.927Z,21.88
2022-09-06T05:29:20.253Z,21.88
2022-09-06T05:31:46.593Z,21.87
2022-09-06T05:34:12.961Z,21.87
2022-09-06T05:36:39.280Z,21.88
2022-09-06T05:39:05.920Z,21.88
2022-09-06T05:41:32.500Z,21.87
2022-09-06T05:43:58.952Z,21.87
2022-09-06T05:46:25.313Z,21.87
2022-09-06T05:48:51.675Z,21.88
2022-09-06T05:51:18.492Z,21.89
2022-09-06T05:53:45.058Z,21.91
2022-09-06T05:56:11.469Z,21.98
2022-09-06T05:58:37.817Z,22.02
2022-09-06T06:01:04.393Z,22.08
2022-09-06T06:03:31.253Z,22.13
2022-09-06T06:05:57.601Z,22.17
2022-09-06T06:08:23.884Z,22.18
2022-09-06T06:10:50.279Z,22.19
2022-09-06T06:13:16.829Z,22.22
2022-09-06T06:15:43.279Z,22.27
2022-09-06T06:18:09.578Z,22.31
2022-09-06T06:20:35.877Z,22.34
2022-09-06T06:23:02.571Z,22.28
2022-09-06T06:25:29.164Z,22.46
2022-09-06T06:27:55.469Z,22.52
2022-09-06T06:30:21.888Z,22.61
2022-09-06T06:32:48.226Z,23.05
2022-09-06T06:35:14.486Z,23.32
2022-09-06T06:37:40.801Z,23.22
2022-09-06T06:40:07.290Z,23.23
2022-09-06T06:42:33.803Z,23.55
2022-09-06T06:45:00.265Z,23.63
2022-09-06T06:47:27.103Z,23.87
2022-09-06T06:49:53.404Z,23.89
2022-09-06T06:52:19.795Z,23.91
2022-09-06T06:54:46.533Z,24.32
2022-09-06T06:57:12.895Z,24.41
2022-09-06T06:59:39.309Z,24.27
2022-09-06T07:02:05.718Z,24.18
2022-09-06T07:04:32.135Z,24.10
2022-09-06T07:12:31.016Z,24.23
2022-09-06T07:14:57.335Z,24.36
2022-09-06T07:17:23.619Z,24.45
2022-09-06T07:22:36.406Z,24.20
2022-09-06T07:25:02.977Z,24.16
2022-09-06T07:30:16.083Z,24.12
2022-09-06T07:32:42.522Z,24.13
2022-09-06T07:35:09.081Z,24.14
2022-09-06T07:37:35.529Z,24.13
2022-09-06T07:40:02.070Z,24.14
2022-09-06T07:42:30.760Z,24.15
2022-09-06T07:44:59.107Z,24.15
2022-09-06T07:53:10.960Z,24.19
2022-09-06T07:55:42.199Z,24.23
2022-09-06T07:58:08.618Z,24.29
2022-09-06T08:00:34.990Z,24.38
2022-09-06T08:03:01.297Z,24.42
2022-09-06T08:11:00.376Z,24.52
2022-09-06T08:13:26.806Z,24.58
2022-09-06T08:15:53.194Z,24.79
2022-09-06T08:18:19.639Z,24.77
2022-09-06T08:20:46.205Z,24.71
2022-09-06T08:23:13.028Z,24.69
2022-09-06T08:25:39.394Z,24.74
2022-09-06T08:28:05.694Z,24.80
2022-09-06T08:30:35.305Z,24.94
2022-09-06T08:33:02.081Z,25.16
2022-09-06T08:35:28.730Z,25.20
2022-09-06T08:37:55.497Z,25.57
2022-09-06T08:40:24.900Z,25.52
2022-09-06T08:42:51.329Z,25.58
2022-09-06T08:45:17.683Z,25.70
2022-09-06T08:47:44.370Z,26.41
2022-09-06T08:50:10.718Z,26.16
2022-09-06T08:52:41.818Z,25.89
2022-09-06T08:55:11.501Z,25.64
2022-09-06T08:57:40.287Z,25.64
2022-09-06T09:00:06.925Z,25.90
2022-09-06T09:02:33.383Z,25.66
2022-09-06T09:05:00.084Z,25.65
2022-09-06T09:07:26.453Z,25.99
2022-09-06T09:09:52.846Z,26.32
2022-09-06T09:12:19.503Z,26.25
2022-09-06T09:14:45.830Z,26.33
2022-09-06T09:17:12.260Z,26.19
2022-09-06T09:19:39.056Z,26.01
2022-09-06T09:22:05.428Z,26.00
2022-09-06T09:24:31.807Z,26.01
2022-09-06T09:26:58.070Z,26.04
2022-09-06T09:29:28.697Z,26.09
2022-09-06T09:31:56.077Z,26.09
2022-09-06T09:34:22.591Z,26.08
2022-09-06T09:39:35.386Z,26.15
2022-09-06T09:42:01.988Z,26.19
2022-09-06T09:44:28.311Z,26.21
2022-09-06T09:46:55.115Z,26.23
2022-09-06T09:49:21.680Z,26.25
2022-09-06T09:51:48.000Z,26.27
2022-09-06T09:54:14.304Z,26.32
2022-09-06T09:56:40.684Z,26.35
2022-09-06T09:59:07.062Z,26.36
2022-09-06T10:01:33.388Z,26.35
2022-09-06T10:09:33.004Z,26.29
2022-09-06T10:11:59.272Z,26.28
2022-09-06T10:14:25.706Z,26.30
2022-09-06T10:16:52.088Z,26.33
2022-09-06T10:19:18.440Z,26.37
2022-09-06T10:21:44.754Z,26.41
2022-09-06T10:24:26.984Z,26.45
2022-09-06T10:26:53.932Z,26.45
2022-09-06T10:29:20.377Z,26.47
2022-09-06T10:31:46.831Z,26.46
2022-09-06T10:34:13.398Z,26.46
2022-09-06T10:36:39.961Z,26.52
2022-09-06T10:39:06.296Z,26.58
2022-09-06T10:41:32.658Z,26.65
2022-09-06T10:44:03.545Z,26.70
2022-09-06T10:46:30.347Z,26.73
2022-09-06T10:48:56.748Z,26.75
2022-09-06T10:51:23.103Z,26.77
2022-09-06T10:53:49.482Z,26.81
2022-09-06T10:56:15.855Z,26.85
2022-09-06T11:01:28.661Z,26.91
2022-09-06T11:03:58.314Z,26.94
2022-09-06T11:06:28.797Z,26.99
2022-09-06T11:08:58.094Z,27.01
2022-09-06T11:11:24.789Z,27.05
2022-09-06T11:13:51.077Z,27.06
2022-09-06T11:16:17.565Z,27.09
2022-09-06T11:18:43.914Z,27.13
2022-09-06T11:21:10.218Z,27.15
2022-09-06T11:23:36.700Z,27.17
2022-09-06T11:26:03.034Z,27.19
2022-09-06T11:28:29.650Z,27.22
2022-09-06T11:30:56.024Z,27.26
2022-09-06T11:33:22.343Z,27.29
2022-09-06T11:35:48.789Z,27.33
2022-09-06T11:38:15.236Z,27.34
2022-09-06T11:40:41.690Z,27.37
2022-09-06T11:43:08.657Z,27.39
2022-09-06T11:45:34.947Z,27.42
2022-09-06T11:48:01.695Z,27.44
2022-09-06T11:50:28.269Z,27.46
2022-09-06T11:52:54.552Z,27.49
2022-09-06T11:55:22.842Z,27.51
2022-09-06T11:57:51.516Z,27.53
2022-09-06T12:00:17.923Z,27.55
2022-09-06T12:02:44.321Z,27.58
2022-09-06T12:05:10.802Z,27.53
2022-09-06T12:07:37.631Z,27.49
2022-09-06T12:10:03.959Z,27.46
2022-09-06T12:12:30.302Z,27.46
2022-09-06T12:14:56.630Z,27.44
2022-09-06T12:17:27.399Z,27.42
2022-09-06T12:19:56.646Z,27.42
2022-09-06T12:22:23.081Z,27.42
2022-09-06T12:24:49.674Z,27.49
2022-09-06T12:27:15.981Z,27.53
2022-09-06T12:29:42.289Z,27.48
2022-09-06T12:32:08.619Z,27.51
2022-09-06T12:34:35.496Z,27.59
2022-09-06T12:37:01.886Z,27.63
2022-09-06T12:39:28.810Z,27.67
2022-09-06T12:41:55.290Z,27.70
2022-09-06T12:44:21.716Z,27.71
2022-09-06T12:46:48.139Z,27.76
2022-09-06T12:49:14.552Z,27.79
2022-09-06T12:51:40.890Z,27.77
2022-09-06T12:54:07.222Z,27.75
2022-09-06T12:56:33.546Z,27.73
2022-09-06T12:59:06.161Z,27.80
2022-09-06T13:01:32.723Z,27.83
2022-09-06T13:03:59.134Z,27.82
2022-09-06T13:06:27.181Z,27.79
2022-09-06T13:08:53.665Z,27.79
2022-09-06T13:11:20.065Z,27.78
2022-09-06T13:13:46.433Z,27.77
2022-09-06T13:16:13.126Z,27.77
2022-09-06T13:18:39.507Z,27.82
2022-09-06T13:21:05.845Z,27.85
2022-09-06T13:23:32.497Z,27.85
2022-09-06T13:25:58.855Z,27.85
2022-09-06T13:28:25.162Z,27.88
2022-09-06T13:30:51.658Z,27.89
2022-09-06T13:33:17.977Z,27.89
2022-09-06T13:35:44.519Z,27.91
2022-09-06T13:38:11.261Z,27.92
2022-09-06T13:40:53.839Z,27.93
2022-09-06T13:43:24.147Z,27.95
2022-09-06T13:45:50.600Z,27.95
2022-09-06T13:48:28.860Z,27.98
2022-09-06T13:50:55.805Z,27.99
2022-09-06T13:53:23.313Z,27.99
2022-09-06T13:55:50.157Z,27.99
2022-09-06T13:58:16.733Z,27.98
2022-09-06T14:00:43.149Z,27.98
2022-09-06T14:03:09.490Z,27.99
2022-09-06T14:05:35.906Z,28.00
2022-09-06T14:08:02.479Z,27.97
2022-09-06T14:10:30.886Z,27.95
2022-09-06T14:12:57.256Z,27.94
2022-09-06T14:15:23.956Z,27.96
2022-09-06T14:17:50.329Z,27.97
2022-09-06T14:20:16.953Z,27.98
2022-09-06T14:22:43.279Z,27.90
2022-09-06T14:25:09.651Z,27.95
2022-09-06T14:27:36.062Z,27.96
2022-09-06T14:30:02.594Z,27.97
2022-09-06T14:32:29.364Z,27.97
2022-09-06T14:34:55.813Z,27.96
2022-09-06T14:37:22.139Z,27.96
2022-09-06T14:39:48.504Z,27.96
2022-09-06T14:42:14.944Z,27.95
2022-09-06T14:44:41.644Z,27.93
2022-09-06T14:47:09.388Z,27.92
2022-09-06T14:49:35.817Z,27.93
2022-09-06T14:52:02.687Z,27.91
2022-09-06T14:54:29.567Z,27.88
2022-09-06T14:56:55.931Z,27.88
2022-09-06T14:59:22.284Z,27.87
2022-09-06T15:01:49.083Z,27.89
2022-09-06T15:04:15.444Z,27.90
2022-09-06T15:06:41.771Z,27.90
2022-09-06T15:09:08.125Z,27.89
2022-09-06T15:11:34.705Z,27.89
2022-09-06T15:14:01.057Z,27.87
2022-09-06T15:16:27.358Z,27.85
2022-09-06T15:18:53.637Z,27.86
2022-09-06T15:21:20.141Z,27.83
2022-09-06T15:23:47.750Z,27.83
2022-09-06T15:26:14.138Z,27.81
2022-09-06T15:28:40.456Z,27.80
2022-09-06T15:31:06.967Z,27.78
2022-09-06T15:33:33.356Z,27.77
2022-09-06T15:35:59.776Z,27.76
2022-09-06T15:38:26.084Z,27.77
2022-09-06T15:40:52.458Z,27.76
2022-09-06T15:43:18.785Z,27.77
2022-09-06T15:45:45.233Z,27.76
2022-09-06T15:48:12.254Z,27.75
2022-09-06T15:50:50.687Z,27.76
2022-09-06T15:53:18.019Z,27.76
2022-09-06T15:55:44.318Z,27.75
2022-09-06T15:58:10.651Z,27.74
2022-09-06T16:00:36.995Z,27.77
2022-09-06T16:03:09.469Z,27.77
2022-09-06T16:08:22.186Z,27.77
2022-09-06T16:10:48.525Z,27.76
2022-09-06T16:13:15.080Z,27.76
2022-09-06T16:15:41.604Z,27.74
2022-09-06T16:18:07.975Z,27.74
2022-09-06T16:20:34.283Z,27.73
2022-09-06T16:23:01.061Z,27.71
2022-09-06T16:25:27.404Z,27.71
2022-09-06T16:27:53.660Z,27.70
2022-09-06T16:30:20.171Z,27.69
2022-09-06T16:32:46.816Z,27.68
2022-09-06T16:35:13.138Z,27.68
2022-09-06T16:37:39.564Z,27.67
2022-09-06T16:40:06.082Z,27.68
2022-09-06T16:42:32.557Z,27.67
2022-09-06T16:44:59.005Z,27.66
2022-09-06T16:47:25.860Z,27.64
2022-09-06T16:49:52.610Z,27.65
2022-09-06T16:52:19.012Z,27.64
2022-09-06T16:54:45.328Z,27.63
2022-09-06T16:57:11.887Z,27.63
2022-09-06T16:59:38.324Z,27.62
2022-09-06T17:02:04.811Z,27.61
2022-09-06T17:04:31.348Z,27.59
2022-09-06T17:06:57.678Z,27.59
2022-09-06T17:09:24.263Z,27.58
2022-09-06T17:11:50.613Z,27.57
2022-09-06T17:14:17.217Z,27.56
2022-09-06T17:16:43.836Z,27.55
2022-09-06T17:19:10.281Z,27.54
2022-09-06T17:21:37.130Z,27.53
2022-09-06T17:24:03.429Z,27.52
2022-09-06T17:26:29.915Z,27.50
2022-09-06T17:28:56.204Z,27.50
2022-09-06T17:31:25.863Z,27.48
2022-09-06T17:33:52.402Z,27.47
2022-09-06T17:36:19.111Z,27.46
2022-09-06T17:38:47.139Z,27.44
2022-09-06T17:41:16.155Z,27.42
2022-09-06T17:43:42.520Z,27.41
2022-09-06T17:46:09.142Z,27.40
2022-09-06T17:48:35.472Z,27.38
2022-09-06T17:51:01.793Z,27.36
2022-09-06T17:53:28.241Z,27.35
2022-09-06T17:55:54.607Z,27.34
2022-09-06T17:58:21.127Z,27.33
2022-09-06T18:00:47.466Z,27.31
2022-09-06T18:03:13.899Z,27.30
2022-09-06T18:05:40.293Z,27.29
2022-09-06T18:08:07.094Z,27.27
2022-09-06T18:10:33.491Z,27.25
2022-09-06T18:12:59.869Z,27.24
2022-09-06T18:15:26.164Z,27.21
2022-09-06T18:17:52.731Z,27.19
2022-09-06T18:20:19.100Z,27.17
2022-09-06T18:22:45.411Z,27.15
2022-09-06T18:25:11.808Z,27.14
2022-09-06T18:27:38.284Z,27.11
2022-09-06T18:30:12.849Z,27.09
2022-09-06T18:32:41.114Z,27.07
2022-09-06T18:35:07.441Z,27.05
2022-09-06T18:37:34.150Z,27.04
2022-09-06T18:40:00.657Z,27.01
2022-09-06T18:42:27.191Z,27.00
2022-09-06T18:44:54.641Z,26.99
2022-09-06T18:47:20.970Z,26.96
2022-09-06T18:49:47.358Z,26.96
2022-09-06T18:52:13.712Z,26.94
2022-09-06T18:54:40.233Z,26.92
2022-09-06T18:57:06.647Z,26.90
2022-09-06T18:59:33.213Z,26.90
2022-09-06T19:01:59.636Z,26.88
2022-09-06T19:04:26.250Z,26.86
2022-09-06T19:06:52.613Z,26.85
2022-09-06T19:09:18.973Z,26.83
2022-09-06T19:11:45.274Z,26.80
2022-09-06T19:14:11.726Z,26.79
2022-09-06T19:16:38.077Z,26.77
2022-09-06T19:19:04.591Z,26.75
2022-09-06T19:21:31.063Z,26.73
2022-09-06T19:23:57.489Z,26.70
2022-09-06T19:26:23.796Z,26.66
2022-09-06T19:28:50.191Z,26.64
2022-09-06T19:31:16.878Z,26.61
2022-09-06T19:33:43.526Z,26.58
2022-09-06T19:36:13.047Z,26.56
2022-09-06T19:38:59.526Z,26.52
2022-09-06T19:41:26.229Z,26.49
2022-09-06T19:43:53.085Z,26.47
2022-09-06T19:46:19.639Z,26.44
2022-09-06T19:48:45.997Z,26.41
2022-09-06T19:51:12.360Z,26.40
2022-09-06T19:53:39.043Z,26.37
2022-09-06T19:56:05.726Z,26.34
2022-09-06T19:58:32.123Z,26.32
2022-09-06T20:00:58.455Z,26.30
2022-09-06T20:03:26.191Z,26.26
2022-09-06T20:05:52.547Z,26.24
2022-09-06T20:08:18.834Z,26.22
2022-09-06T20:10:45.360Z,26.20
2022-09-06T20:13:11.735Z,26.17
2022-09-06T20:15:38.254Z,26.15
2022-09-06T20:18:04.760Z,26.12
2022-09-06T20:20:31.254Z,26.10
2022-09-06T20:22:58.048Z,26.07
2022-09-06T20:25:24.366Z,26.04
2022-09-06T20:27:51.310Z,26.01
2022-09-06T20:30:17.583Z,25.98
2022-09-06T20:32:44.844Z,25.94
2022-09-06T20:35:11.281Z,25.92
2022-09-06T20:37:37.596Z,25.89
2022-09-06T20:40:04.209Z,25.88
2022-09-06T20:42:30.634Z,25.86
2022-09-06T20:44:57.107Z,25.84
2022-09-06T20:47:23.839Z,25.81
2022-09-06T20:49:50.763Z,25.80
2022-09-06T20:52:17.184Z,25.78
2022-09-06T20:54:44.014Z,25.76
2022-09-06T20:57:10.424Z,25.75
2022-09-06T20:59:37.552Z,25.72
2022-09-06T21:02:04.131Z,25.70
2022-09-06T21:04:30.640Z,25.68
2022-09-06T21:06:57.224Z,25.65
2022-09-06T21:09:23.691Z,25.65
2022-09-06T21:11:53.217Z,25.62
2022-09-06T21:14:19.577Z,25.61
2022-09-06T21:16:46.187Z,25.58
2022-09-06T21:19:13.169Z,25.55
2022-09-06T21:21:40.733Z,25.53
2022-09-06T21:24:07.317Z,25.54
2022-09-06T21:26:33.703Z,25.50
2022-09-06T21:29:00.129Z,25.48
2022-09-06T21:31:26.498Z,25.46
2022-09-06T21:33:52.863Z,25.45
2022-09-06T21:36:19.221Z,25.42
2022-09-06T21:38:48.620Z,25.38
2022-09-06T21:41:15.024Z,25.36
2022-09-06T21:46:33.087Z,25.30
2022-09-06T21:48:59.908Z,25.28
2022-09-06T21:51:26.628Z,25.25
2022-09-06T21:53:52.949Z,25.23
2022-09-06T21:56:19.244Z,25.21
2022-09-06T21:58:45.662Z,25.19
2022-09-06T22:01:12.155Z,25.17
2022-09-06T22:03:38.831Z,25.15
2022-09-06T22:06:05.247Z,25.13
2022-09-06T22:08:31.599Z,25.10
2022-09-06T22:10:58.077Z,25.09
2022-09-06T22:13:24.939Z,25.06
2022-09-06T22:15:51.345Z,25.02
2022-09-06T22:18:17.678Z,25.00
2022-09-06T22:20:44.076Z,24.97
2022-09-06T22:23:10.499Z,24.92
2022-09-06T22:25:36.922Z,24.87
2022-09-06T22:28:03.513Z,24.83
2022-09-06T22:30:30.305Z,24.79
2022-09-06T22:32:56.793Z,24.75
2022-09-06T22:35:23.625Z,24.74
2022-09-06T22:37:50.802Z,24.70
2022-09-06T22:40:17.610Z,24.68
2022-09-06T22:42:43.941Z,24.57
2022-09-06T22:45:10.566Z,24.60
2022-09-06T22:47:37.690Z,24.58
2022-09-06T22:50:04.335Z,24.55
2022-09-06T22:52:30.703Z,24.51
2022-09-06T22:54:57.655Z,24.48
2022-09-06T22:57:24.002Z,24.46
2022-09-06T22:59:50.751Z,24.44
2022-09-06T23:02:17.597Z,24.41
2022-09-06T23:04:44.654Z,24.37
2022-09-06T23:09:37.379Z,24.32
2022-09-06T23:12:03.762Z,24.30
2022-09-06T23:14:30.068Z,24.29
2022-09-06T23:16:56.379Z,24.27
2022-09-06T23:19:22.858Z,24.24
2022-09-06T23:21:49.709Z,24.21
2022-09-06T23:24:16.075Z,24.19
2022-09-06T23:26:42.420Z,24.18
2022-09-06T23:29:08.770Z,24.15
2022-09-06T23:31:35.138Z,24.13
2022-09-06T23:36:46.545Z,24.07
2022-09-06T23:39:12.856Z,24.05
2022-09-06T23:41:39.396Z,24.03
2022-09-06T23:44:05.790Z,24.01
2022-09-06T23:46:32.409Z,23.97
2022-09-06T23:48:58.880Z,23.96
2022-09-06T23:51:25.620Z,23.94
2022-09-06T23:53:51.949Z,23.91
2022-09-06T23:56:21.910Z,23.89
2022-09-06T23:58:48.244Z,23.87
